Terminal Aerodrome Forecast
Issued by NWS Houston/Galveston, TX

Home | Current Version | Previous Version | Text Only | Print | Product List | Glossary On
Versions: 1 2 3 4 5 6 7 8 9 10 11 12 13 14 15 16 17 18 19 20 21
000
FTUS44 KHGX 242128 AAA
TAFGLS
TAF AMD
KGLS 242128Z 2421/2518 21010KT P6SM FEW013 BKN035
     FM250200 16010KT 5SM BR SCT009 BKN040
     FM250600 20007KT 5SM BR SCT007 BKN050
     FM251100 01007KT P6SM SCT010 SCT050
     FM251500 06008KT P6SM SCT050=

USA.gov is the U.S. government's official web portal to all federal, state and local government web resources and services.